Hauptseite
METAR-TAF:

METAR-TAF

Flughäfen :

Flughafen Lae Nadzab

Lae, Papua-Neuguinea

Breite: 6-34-11S, Länge: 146-43-34E, Höhe: 73 m

Beobachtung

Neuester Wetterbericht von vor 43 Minuten, um 21:00 UTC
Wind 3 kt aus unterschiedlichen Richtungen
Temperatur 24°C
Luftfeuchtigkeit 94%
Luftdruck 1011 hPa
Sichtweite 10 km oder mehr
Leicht bewölkt in der Höhe von 1500 ft
Aufgelockert bewölkt in der Höhe von 6000 ft

METAR: AYNZ 152100Z VRB03KT 9999 FEW015 SCT060 24/23 Q1011.

Zeit: 07:43 (21:43 UTC)


TAF: fehlend

Wetterbeobachtungen und Prognosen von mehr als 4000 Flughäfen (METAR und TAF Bericht).

Die verfügbaren Stationen werden durch gelbe und rote Markierungen auf der Karte dargestellt.

Führen Sie die Maus auf sie, um den Namen der Station zu sehen.

Darauf klicken, um die Beobachtung von Wetterbeobachtungen und Prognosen zu sehen.

Um die Karte zu ändern : klicken Sie auf den grünen Tasten mit einem schwarzen Kreuz Zum Vergrößern, auf den grünen Button mit einem Gedankenstrich zu verkleinern, oder auf die grünen Pfeile für benachbarte Karten.


METAR-TAF: